Time;durP1;ratioP1;P1;durP2;ratioP2;P2;SDS_P1;SDS_P2;PMS_P1;PMS_P2;Temp;Humidity;BMP_temperature;BMP_pressure;BME280_temperature;BME280_humidity;BME280_pressure;Samples;Min_cycle;Max_cycle;Signal;HPM_P1;HPM_P2
2022/12/25 00:00:21;;;;;;;11.38;5.25;;;;;;;8.70;90.85;100209.38;5087897;28;20028;-27
2022/12/25 00:02:46;;;;;;;9.32;4.90;;;;;;;8.69;91.47;100229.84;5088426;28;20043;-31
2022/12/25 00:05:11;;;;;;;10.75;5.55;;;;;;;8.72;90.91;100231.28;5088432;28;20020;-28
2022/12/25 00:07:37;;;;;;;11.20;5.72;;;;;;;8.52;90.88;100217.94;5070296;28;20024;-27
2022/12/25 00:10:03;;;;;;;11.15;5.47;;;;;;;8.54;90.48;100242.47;5087784;28;20130;-30
2022/12/25 00:12:28;;;;;;;15.23;8.40;;;;;;;7.91;91.13;100235.50;5086959;28;20047;-28
2022/12/25 00:14:54;;;;;;;17.10;9.52;;;;;;;7.99;90.86;100243.31;5088272;28;20392;-33
2022/12/25 00:17:19;;;;;;;17.27;9.15;;;;;;;7.89;90.83;100256.13;5088439;28;20472;-28
2022/12/25 00:19:45;;;;;;;17.88;9.63;;;;;;;7.47;91.67;100236.66;5088330;28;20032;-29
2022/12/25 00:22:10;;;;;;;17.35;10.07;;;;;;;7.54;91.87;100244.66;5087579;28;20064;-34
2022/12/25 00:24:36;;;;;;;27.85;15.35;;;;;;;7.22;92.63;100234.47;5088290;28;20058;-30
2022/12/25 00:27:01;;;;;;;31.35;15.05;;;;;;;7.30;93.87;100256.56;5088016;28;20468;-30
2022/12/25 00:29:26;;;;;;;15.02;7.82;;;;;;;7.57;93.53;100242.44;5087860;28;20503;-30
2022/12/25 00:31:52;;;;;;;10.88;6.28;;;;;;;7.87;92.36;100230.75;5069952;28;20051;-34
2022/12/25 00:34:17;;;;;;;8.95;5.05;;;;;;;8.25;90.90;100228.47;5088045;28;20040;-31
2022/12/25 00:36:43;;;;;;;9.50;4.25;;;;;;;8.61;88.14;100251.31;5088135;28;20039;-29
2022/12/25 00:39:09;;;;;;;8.23;4.10;;;;;;;8.75;86.68;100255.63;5069910;28;20034;-28
2022/12/25 00:44:18;;;;;;;6.93;3.80;;;;;;;9.07;83.83;100252.38;5088048;28;20035;-30
2022/12/25 00:46:44;;;;;;;6.05;3.25;;;;;;;8.98;83.53;100233.16;5087935;28;20020;-32
2022/12/25 00:49:10;;;;;;;6.53;3.78;;;;;;;8.90;83.74;100236.00;5088032;28;20032;-30
2022/12/25 00:51:36;;;;;;;9.50;4.22;;;;;;;8.92;84.05;100249.91;5069939;28;20040;-32
2022/12/25 00:54:02;;;;;;;7.32;4.20;;;;;;;8.92;84.33;100249.91;5069316;28;20028;-29
2022/12/25 00:56:27;;;;;;;7.55;4.18;;;;;;;8.95;84.06;100254.81;5089042;28;20024;-30
2022/12/25 00:58:54;;;;;;;7.88;4.32;;;;;;;8.89;83.61;100256.47;5091828;28;20028;-30
2022/12/25 01:01:19;;;;;;;6.22;3.35;;;;;;;8.92;83.82;100260.56;5073201;28;20134;-34
2022/12/25 01:03:45;;;;;;;8.07;4.35;;;;;;;8.68;84.16;100233.50;5091443;28;20103;-29
2022/12/25 01:06:11;;;;;;;11.63;6.22;;;;;;;8.87;84.32;100268.31;5091044;28;20488;-32
2022/12/25 01:10:20;;;;;;;8.85;4.63;;;;;;;8.87;84.55;100278.94;5091080;28;20032;-29
2022/12/25 01:11:24;;;;;;;13.27;9.43;;;;;;;8.76;84.40;100289.16;5091171;28;20032;-30
2022/12/25 01:13:49;;;;;;;25.02;22.02;;;;;;;8.74;84.85;100291.19;5091269;28;20027;-28
2022/12/25 01:16:15;;;;;;;18.75;14.13;;;;;;;8.57;84.35;100279.31;5090955;28;20028;-36
2022/12/25 01:18:42;;;;;;;14.80;7.90;;;;;;;8.28;85.58;100281.22;5091291;28;20032;-33
2022/12/25 01:21:09;;;;;;;10.07;6.00;;;;;;;8.34;86.00;100312.31;5072288;28;20166;-29
2022/12/25 01:23:34;;;;;;;9.25;5.05;;;;;;;8.18;86.20;100289.56;5090972;28;20059;-29
2022/12/25 01:26:09;;;;;;;9.15;5.05;;;;;;;8.26;86.09;100315.16;5090436;28;20051;-30
2022/12/25 01:28:35;;;;;;;8.25;5.32;;;;;;;8.09;86.32;100303.19;5072695;28;20114;-32
2022/12/25 01:31:00;;;;;;;10.55;6.18;;;;;;;8.07;86.85;100306.06;5090768;28;20040;-31
2022/12/25 01:33:26;;;;;;;9.43;5.45;;;;;;;8.01;87.56;100315.63;5090741;28;20474;-30
2022/12/25 01:35:51;;;;;;;9.63;5.75;;;;;;;8.05;87.33;100316.88;5090627;28;20058;-28
2022/12/25 01:38:17;;;;;;;12.90;9.27;;;;;;;8.02;87.09;100317.25;5090570;28;20494;-32
2022/12/25 01:40:42;;;;;;;11.32;6.72;;;;;;;7.94;87.16;100317.41;5089294;28;20035;-30
2022/12/25 01:43:26;;;;;;;12.77;10.80;;;;;;;7.79;86.83;100319.38;5072372;28;20052;-31
2022/12/25 01:45:51;;;;;;;11.05;6.63;;;;;;;7.50;87.82;100313.25;5090566;28;20024;-29
2022/12/25 01:48:22;;;;;;;11.50;6.18;;;;;;;7.77;87.37;100324.06;5071922;28;20031;-33
2022/12/25 01:50:56;;;;;;;8.85;5.63;;;;;;;7.60;86.79;100321.69;5072485;28;20032;-30
2022/12/25 01:53:24;;;;;;;12.50;7.35;;;;;;;7.57;87.44;100322.06;5090737;28;20064;-29
2022/12/25 01:55:56;;;;;;;9.38;5.70;;;;;;;7.47;87.35;100329.53;5090372;28;20051;-32
2022/12/25 01:58:22;;;;;;;13.70;7.55;;;;;;;7.32;88.33;100320.88;5090129;28;20404;-28
2022/12/25 02:00:50;;;;;;;12.38;6.60;;;;;;;7.34;88.30;100321.50;5090248;28;20020;-30
2022/12/25 02:03:16;;;;;;;10.40;6.07;;;;;;;7.22;88.09;100298.13;5089903;28;20028;-31
2022/12/25 02:05:43;;;;;;;11.55;6.50;;;;;;;7.26;87.96;100309.19;5072129;28;20415;-32
2022/12/25 02:08:11;;;;;;;12.02;6.60;;;;;;;7.31;87.38;100296.16;5089409;28;20040;-28
2022/12/25 02:10:42;;;;;;;12.82;6.53;;;;;;;7.31;87.97;100319.22;5071866;28;20432;-29
2022/12/25 02:13:07;;;;;;;11.15;6.55;;;;;;;7.26;88.85;100313.66;5090002;28;20043;-32
2022/12/25 02:16:02;;;;;;;10.77;5.90;;;;;;;7.31;88.27;100316.56;5088623;28;20035;-31
2022/12/25 02:18:47;;;;;;;10.38;6.72;;;;;;;7.34;87.92;100329.44;5088726;28;20054;-30
2022/12/25 02:21:13;;;;;;;9.98;6.15;;;;;;;7.24;87.65;100327.94;5071324;28;20051;-31
2022/12/25 02:24:12;;;;;;;11.52;6.00;;;;;;;7.15;87.97;100323.78;5088619;28;20571;-30
2022/12/25 02:27:05;;;;;;;10.40;6.00;;;;;;;7.16;88.72;100321.94;5088639;28;20036;-30
2022/12/25 02:30:01;;;;;;;10.77;5.72;;;;;;;6.99;89.45;100319.53;5088593;28;20027;-29
2022/12/25 02:32:32;;;;;;;10.77;5.65;;;;;;;6.82;89.58;100307.53;5088208;28;20108;-29
2022/12/25 02:35:11;;;;;;;10.32;5.60;;;;;;;7.20;90.25;100305.44;5089924;28;20028;-29
2022/12/25 02:37:50;;;;;;;12.52;6.20;;;;;;;7.39;88.83;100311.94;5089759;28;20107;-31
2022/12/25 02:40:30;;;;;;;20.83;9.48;;;;;;;7.43;88.36;100320.34;5089385;28;20020;-31
2022/12/25 03:08:21;;;;;;;8.77;5.10;;;;;;;6.57;87.54;100320.31;5088760;28;20034;-29
2022/12/25 03:13:48;;;;;;;9.73;4.55;;;;;;;6.75;88.34;100344.56;5089200;28;20063;-27
2022/12/25 03:18:58;;;;;;;9.50;5.28;;;;;;;6.90;87.80;100341.06;5088048;28;20031;-29
2022/12/25 03:26:55;;;;;;;10.05;6.13;;;;;;;6.78;88.83;100343.38;5088767;28;20039;-27
2022/12/25 03:32:18;;;;;;;12.23;6.45;;;;;;;6.84;89.05;100343.47;5088778;28;20104;-28
2022/12/25 03:35:24;;;;;;;9.80;5.40;;;;;;;6.88;89.06;100353.69;5088528;28;20076;-27
2022/12/25 04:36:43;;;;;;;9.02;5.93;;;;;;;7.11;89.36;100417.16;5091847;28;20030;-29
2022/12/25 04:39:09;;;;;;;11.85;6.45;;;;;;;7.19;89.44;100425.00;5091997;28;20032;-28
2022/12/25 04:41:35;;;;;;;12.55;6.05;;;;;;;7.04;89.95;100438.31;5091759;28;20111;-29
2022/12/25 04:44:00;;;;;;;11.48;6.50;;;;;;;7.13;88.96;100431.03;5091613;28;20039;-28
2022/12/25 04:46:26;;;;;;;12.27;6.80;;;;;;;7.12;89.27;100446.16;5091585;28;20078;-28
2022/12/25 04:48:51;;;;;;;12.77;8.10;;;;;;;7.11;89.08;100439.22;5091682;28;20028;-30
2022/12/25 04:51:22;;;;;;;12.48;6.53;;;;;;;7.06;89.41;100436.28;5091655;28;20043;-28
2022/12/25 04:53:49;;;;;;;10.02;6.68;;;;;;;7.16;88.43;100442.09;5073495;28;20051;-29
2022/12/25 04:56:15;;;;;;;9.68;5.68;;;;;;;7.08;88.28;100447.53;5091188;28;20104;-29
2022/12/25 04:58:42;;;;;;;9.70;6.60;;;;;;;7.04;88.52;100448.91;5073287;28;20070;-28
2022/12/25 05:01:08;;;;;;;11.30;6.85;;;;;;;7.03;88.23;100453.41;5091180;28;20450;-27
2022/12/25 05:03:34;;;;;;;13.43;8.52;;;;;;;6.97;87.90;100442.72;5073139;28;20025;-31
2022/12/25 05:06:01;;;;;;;15.07;8.10;;;;;;;7.07;88.27;100455.66;5073001;28;20504;-29
2022/12/25 05:08:31;;;;;;;10.77;6.50;;;;;;;7.11;88.06;100460.44;5072683;28;20031;-27
2022/12/25 05:10:56;;;;;;;12.75;7.60;;;;;;;7.13;88.19;100455.75;5091185;28;20028;-31
2022/12/25 05:13:22;;;;;;;9.27;5.45;;;;;;;7.10;88.48;100463.25;5091632;28;20039;-29
2022/12/25 05:15:47;;;;;;;10.65;5.40;;;;;;;7.07;88.46;100453.84;5091562;28;20113;-28
2022/12/25 05:18:13;;;;;;;11.10;5.65;;;;;;;7.23;87.75;100464.25;5072116;28;20855;-28
2022/12/25 05:20:38;;;;;;;31.25;14.90;;;;;;;7.06;88.20;100476.06;5090650;28;20028;-27
2022/12/25 05:23:04;;;;;;;10.27;5.68;;;;;;;7.17;87.93;100475.59;5072469;28;20487;-27
2022/12/25 05:25:29;;;;;;;10.77;5.38;;;;;;;7.07;88.11;100480.38;5073039;28;20127;-27
2022/12/25 05:27:55;;;;;;;11.65;6.82;;;;;;;7.02;88.76;100488.06;5091262;28;20495;-28
2022/12/25 05:30:20;;;;;;;8.38;5.05;;;;;;;7.08;88.20;100489.97;5090714;28;20028;-28
2022/12/25 05:32:46;;;;;;;12.77;6.15;;;;;;;6.99;88.01;100477.84;5090853;28;20039;-27
2022/12/25 05:35:12;;;;;;;9.38;5.90;;;;;;;6.88;88.54;100475.63;5082823;28;20124;-27
2022/12/25 05:37:37;;;;;;;11.80;5.25;;;;;;;7.09;87.86;100488.97;5087799;28;20094;-27
2022/12/25 05:40:03;;;;;;;9.02;5.53;;;;;;;7.13;87.89;100500.00;5090349;28;20032;-28
2022/12/25 05:42:29;;;;;;;14.02;8.80;;;;;;;6.98;87.51;100478.81;5083342;28;20023;-27
2022/12/25 05:44:54;;;;;;;8.32;5.80;;;;;;;7.11;87.72;100502.03;5090418;28;20032;-31
2022/12/25 05:47:20;;;;;;;10.38;6.18;;;;;;;7.03;87.51;100492.38;5072499;28;20020;-26
2022/12/25 05:49:45;;;;;;;11.75;5.82;;;;;;;7.23;87.03;100511.16;5090750;28;20024;-27
2022/12/25 05:52:11;;;;;;;10.40;5.80;;;;;;;7.17;86.86;100525.16;5089920;28;20024;-31
2022/12/25 05:54:36;;;;;;;12.55;7.25;;;;;;;7.24;86.61;100520.75;5072368;28;20085;-28
2022/12/25 05:57:02;;;;;;;12.93;5.88;;;;;;;7.24;86.84;100518.94;5072211;28;20504;-27
2022/12/25 05:59:31;;;;;;;11.13;5.35;;;;;;;7.18;87.21;100530.28;5090553;28;20032;-32
2022/12/25 06:01:58;;;;;;;11.98;6.45;;;;;;;7.24;86.80;100537.50;5090235;28;20028;-30
2022/12/25 06:04:24;;;;;;;10.27;5.88;;;;;;;7.28;87.13;100545.91;5090259;28;20110;-31
2022/12/25 06:06:49;;;;;;;12.60;6.85;;;;;;;7.16;87.42;100532.28;5090110;28;20028;-28
2022/12/25 06:09:15;;;;;;;12.25;6.60;;;;;;;7.15;88.29;100545.72;5088885;28;20032;-31
2022/12/25 06:11:40;;;;;;;11.18;6.75;;;;;;;7.17;88.62;100554.31;5089861;28;20453;-31
2022/12/25 06:14:06;;;;;;;10.43;6.25;;;;;;;7.23;88.78;100554.44;5081799;28;20037;-29
2022/12/25 06:16:31;;;;;;;10.77;6.78;;;;;;;7.02;88.67;100531.28;5077727;28;20027;-30
2022/12/25 06:18:57;;;;;;;13.75;6.75;;;;;;;7.24;88.52;100566.69;5077259;28;20455;-30
2022/12/25 06:21:22;;;;;;;11.90;6.78;;;;;;;7.41;88.16;100569.94;5074142;28;20706;-29
2022/12/25 06:23:48;;;;;;;11.70;6.97;;;;;;;7.52;87.43;100579.28;5051646;28;20025;-30
2022/12/25 06:26:16;;;;;;;15.55;8.27;;;;;;;7.64;86.99;100588.41;5051437;28;20034;-29
2022/12/25 06:28:42;;;;;;;17.13;9.35;;;;;;;7.70;86.67;100591.31;5051257;28;20029;-32
2022/12/25 06:31:11;;;;;;;12.48;7.35;;;;;;;7.70;86.41;100588.66;5069454;28;20044;-30
2022/12/25 06:33:37;;;;;;;11.95;7.03;;;;;;;7.58;86.60;100578.53;5069141;28;20032;-29
2022/12/25 06:36:20;;;;;;;13.18;7.35;;;;;;;7.80;86.34;100597.94;5068841;28;20028;-33
2022/12/25 06:38:46;;;;;;;12.98;7.50;;;;;;;7.83;86.15;100607.41;5069271;28;20033;-29
2022/12/25 06:41:15;;;;;;;12.75;7.15;;;;;;;7.89;85.89;100611.97;5069191;28;20093;-29
2022/12/25 06:43:41;;;;;;;16.00;7.55;;;;;;;7.74;85.82;100590.72;5051133;28;20028;-30
2022/12/25 06:46:09;;;;;;;13.80;8.38;;;;;;;7.93;85.91;100618.53;5079976;28;20024;-31
2022/12/25 06:48:35;;;;;;;17.75;9.30;;;;;;;8.01;85.46;100605.13;5070991;28;20024;-29
2022/12/25 06:51:01;;;;;;;11.75;7.72;;;;;;;8.21;84.78;100637.22;5071120;28;20517;-28
2022/12/25 06:53:27;;;;;;;11.40;7.10;;;;;;;8.00;84.65;100603.47;5089186;28;20107;-27
2022/12/25 06:55:53;;;;;;;15.52;7.68;;;;;;;8.25;83.41;100617.25;5089125;28;20110;-27
2022/12/25 06:58:18;;;;;;;18.77;9.15;;;;;;;8.42;83.57;100627.63;5070850;28;20039;-29
2022/12/25 07:00:44;;;;;;;13.27;7.28;;;;;;;8.45;83.27;100632.56;5088992;28;20024;-28
2022/12/25 07:03:16;;;;;;;26.20;13.23;;;;;;;8.53;83.76;100628.94;5089121;28;20022;-26
2022/12/25 07:05:43;;;;;;;16.25;8.38;;;;;;;8.57;83.01;100630.22;5070838;28;20028;-26
2022/12/25 07:08:09;;;;;;;18.08;13.60;;;;;;;8.55;83.26;100627.75;5089037;28;20044;-29
2022/12/25 07:10:34;;;;;;;18.02;10.25;;;;;;;8.86;83.32;100629.22;5088862;28;20066;-30
2022/12/25 07:12:59;;;;;;;12.85;8.23;;;;;;;9.00;82.60;100632.78;5070210;28;20093;-30
2022/12/25 07:15:25;;;;;;;13.38;8.82;;;;;;;9.01;82.00;100632.59;5088601;28;20040;-28
2022/12/25 07:17:50;;;;;;;14.80;8.85;;;;;;;8.87;82.08;100630.03;5087451;28;20024;-29
2022/12/25 07:20:16;;;;;;;12.38;8.02;;;;;;;9.07;81.97;100635.47;5087907;28;20028;-29
2022/12/25 07:22:41;;;;;;;13.98;9.27;;;;;;;9.22;80.92;100645.00;5069679;28;20051;-29
2022/12/25 07:25:07;;;;;;;14.45;8.00;;;;;;;9.25;81.74;100660.59;5088593;28;20032;-32
2022/12/25 07:27:33;;;;;;;11.48;7.13;;;;;;;9.19;81.25;100661.38;5086934;28;20044;-30
2022/12/25 07:30:03;;;;;;;12.63;7.55;;;;;;;9.38;80.28;100664.34;5069942;28;20024;-32
2022/12/25 07:32:31;;;;;;;12.65;6.63;;;;;;;9.52;78.97;100662.56;5088236;28;20523;-36
2022/12/25 07:34:57;;;;;;;11.10;6.70;;;;;;;9.21;80.24;100645.19;5087920;28;20131;-30
2022/12/25 07:37:22;;;;;;;12.25;7.32;;;;;;;9.32;79.41;100646.50;5070341;28;20102;-33
2022/12/25 07:39:47;;;;;;;13.77;7.95;;;;;;;9.63;79.16;100662.00;5070065;28;20024;-30
2022/12/25 07:42:13;;;;;;;14.23;7.38;;;;;;;9.60;78.66;100641.09;5088115;28;20040;-31
2022/12/25 07:44:38;;;;;;;11.82;6.38;;;;;;;9.61;78.37;100662.19;5069987;28;20020;-30
2022/12/25 07:47:04;;;;;;;17.25;9.60;;;;;;;9.70;78.02;100654.03;5076269;28;20044;-30
2022/12/25 07:49:29;;;;;;;10.23;5.95;;;;;;;9.89;76.97;100666.63;5068296;28;20041;-27
2022/12/25 07:51:55;;;;;;;10.05;5.95;;;;;;;9.84;76.58;100642.41;5068157;28;20036;-28
2022/12/25 07:54:20;;;;;;;10.60;5.47;;;;;;;10.02;76.82;100671.19;5067925;28;20457;-29
2022/12/25 07:56:50;;;;;;;8.80;5.35;;;;;;;9.96;76.56;100656.81;5067788;28;20033;-28
2022/12/25 07:59:15;;;;;;;11.25;6.65;;;;;;;10.30;76.57;100679.09;5049967;28;20119;-33
2022/12/25 08:01:40;;;;;;;10.10;5.90;;;;;;;10.46;73.99;100683.19;5083325;28;20637;-29
2022/12/25 08:04:07;;;;;;;9.50;5.47;;;;;;;10.44;74.86;100682.56;5083275;28;20024;-33
2022/12/25 08:06:34;;;;;;;11.30;6.40;;;;;;;10.72;73.36;100690.41;5086955;28;20103;-31
2022/12/25 08:09:17;;;;;;;12.50;7.03;;;;;;;10.95;73.01;100686.50;5053493;28;20028;-33
2022/12/25 08:11:46;;;;;;;9.23;5.32;;;;;;;11.00;71.01;100695.53;5072030;28;20044;-30
2022/12/25 08:14:12;;;;;;;9.82;5.50;;;;;;;11.17;71.19;100698.59;5071809;28;20039;-30
2022/12/25 08:16:41;;;;;;;12.38;6.10;;;;;;;10.97;70.84;100697.78;5071962;28;20037;-31
2022/12/25 08:19:10;;;;;;;10.25;5.55;;;;;;;10.88;71.41;100699.03;5071455;28;20579;-36
2022/12/25 08:21:36;;;;;;;15.90;8.80;;;;;;;11.24;69.87;100718.13;5053487;28;20064;-31
2022/12/25 08:24:02;;;;;;;14.77;7.53;;;;;;;11.14;69.64;100701.69;5071504;28;20093;-30
2022/12/25 08:26:27;;;;;;;12.13;7.40;;;;;;;11.55;68.62;100705.94;5071282;28;20025;-31
2022/12/25 08:28:53;;;;;;;11.02;5.68;;;;;;;11.72;68.85;100735.69;5071614;28;20024;-29
2022/12/25 08:31:19;;;;;;;7.20;4.10;;;;;;;11.83;67.56;100732.38;5071898;28;20042;-35
2022/12/25 08:33:46;;;;;;;9.13;5.32;;;;;;;11.94;67.46;100732.78;5071399;28;20107;-30
2022/12/25 08:36:12;;;;;;;9.35;4.80;;;;;;;11.94;68.05;100738.13;5071391;28;20502;-29
2022/12/25 08:38:38;;;;;;;80.35;53.72;;;;;;;11.76;68.34;100736.09;5053153;28;20024;-35
2022/12/25 08:41:04;;;;;;;10.77;6.15;;;;;;;11.85;68.01;100745.53;5058678;28;20484;-32
2022/12/25 08:43:30;;;;;;;10.38;8.40;;;;;;;12.22;67.88;100743.16;5091290;28;20492;-30
2022/12/25 08:45:55;;;;;;;7.43;3.85;;;;;;;12.50;65.26;100734.75;5091284;28;20055;-32
2022/12/25 08:48:21;;;;;;;8.48;4.75;;;;;;;12.20;66.09;100745.22;5091259;28;20411;-29
2022/12/25 08:50:52;;;;;;;6.63;4.05;;;;;;;11.98;66.65;100744.69;5091102;28;20505;-30
2022/12/25 08:53:17;;;;;;;9.05;5.20;;;;;;;12.26;67.61;100747.06;5073025;28;20028;-29
2022/12/25 08:55:43;;;;;;;10.25;5.53;;;;;;;12.35;65.64;100740.41;5090758;28;20093;-31
2022/12/25 08:58:09;;;;;;;8.95;4.78;;;;;;;12.39;65.93;100736.28;5090883;28;20031;-32
2022/12/25 09:00:34;;;;;;;15.77;10.10;;;;;;;12.55;66.35;100731.47;5072710;28;20123;-30
2022/12/25 09:03:00;;;;;;;8.82;5.10;;;;;;;12.51;64.32;100727.56;5072822;28;20074;-29
2022/12/25 09:05:25;;;;;;;9.18;4.65;;;;;;;12.50;64.99;100707.19;5090863;28;20046;-29
2022/12/25 09:07:51;;;;;;;8.90;4.68;;;;;;;12.61;64.84;100728.72;5090968;28;20056;-30
2022/12/25 09:10:16;;;;;;;9.40;4.97;;;;;;;12.71;64.72;100730.09;5072073;28;20169;-33
2022/12/25 09:12:42;;;;;;;7.18;4.32;;;;;;;12.45;65.00;100730.06;5072908;28;20028;-31
2022/12/25 09:15:08;;;;;;;7.47;4.25;;;;;;;12.45;64.54;100735.41;5090879;28;20123;-35
2022/12/25 09:17:33;;;;;;;7.68;4.65;;;;;;;12.69;65.10;100730.34;5069945;28;20470;-29
2022/12/25 09:19:59;;;;;;;7.00;4.45;;;;;;;12.80;64.66;100721.59;5090180;28;20040;-31
2022/12/25 09:22:24;;;;;;;9.05;6.47;;;;;;;13.17;63.18;100732.41;5089020;28;20056;-29
2022/12/25 09:24:49;;;;;;;8.25;4.88;;;;;;;13.05;63.14;100732.31;5055056;28;20035;-31
2022/12/25 09:27:15;;;;;;;8.60;4.72;;;;;;;13.14;63.68;100730.19;5090192;28;20028;-29
2022/12/25 09:29:40;;;;;;;7.47;4.05;;;;;;;13.23;63.57;100739.56;5071731;28;20028;-38
2022/12/25 09:32:06;;;;;;;8.48;4.68;;;;;;;13.50;63.23;100731.31;5071138;28;20086;-30
2022/12/25 09:34:31;;;;;;;12.95;7.13;;;;;;;13.92;61.07;100728.78;5065053;28;20105;-33
2022/12/25 09:36:57;;;;;;;8.15;4.65;;;;;;;14.07;60.42;100723.84;5069868;28;20070;-30
2022/12/25 09:39:26;;;;;;;9.85;4.78;;;;;;;13.71;60.40;100710.47;5089275;28;20027;-36
2022/12/25 09:41:59;;;;;;;9.98;6.32;;;;;;;13.85;59.63;100722.69;5088569;28;20654;-34
2022/12/25 09:44:33;;;;;;;8.20;5.30;;;;;;;14.05;59.00;100717.09;5086637;28;20028;-37
2022/12/25 09:47:10;;;;;;;8.38;4.55;;;;;;;14.37;57.98;100735.66;5079541;28;20125;-30
2022/12/25 09:50:14;;;;;;;9.10;4.50;;;;;;;14.33;58.13;100705.78;5069036;28;20075;-31
2022/12/25 09:52:48;;;;;;;10.57;5.78;;;;;;;14.57;58.10;100698.66;5068391;28;20487;-30
2022/12/25 09:55:21;;;;;;;7.88;4.03;;;;;;;14.23;56.75;100714.38;5069188;28;20028;-30
2022/12/25 09:57:52;;;;;;;6.63;3.08;;;;;;;14.41;56.47;100713.50;5050834;28;20677;-31
2022/12/25 10:00:21;;;;;;;7.97;3.83;;;;;;;14.33;55.95;100719.19;5067396;28;20032;-37
2022/12/25 10:03:16;;;;;;;10.30;4.25;;;;;;;14.77;55.38;100725.19;5049610;28;20029;-33
2022/12/25 10:05:54;;;;;;;5.15;3.25;;;;;;;14.91;55.29;100700.81;5068707;28;20769;-29
2022/12/25 10:08:57;;;;;;;5.88;3.22;;;;;;;14.88;55.19;100725.44;5066978;28;20037;-33
2022/12/25 10:11:34;;;;;;;9.32;3.17;;;;;;;14.70;55.17;100724.47;5068645;28;20032;-35
2022/12/25 10:14:19;;;;;;;7.53;3.90;;;;;;;14.88;54.61;100722.75;5067399;28;20024;-34
2022/12/25 10:16:48;;;;;;;6.57;2.97;;;;;;;14.92;55.11;100721.25;5068842;28;20103;-33
2022/12/25 10:19:16;;;;;;;7.97;4.72;;;;;;;15.23;54.80;100722.78;5068432;28;20031;-35
2022/12/25 10:21:41;;;;;;;;;;;;;;;15.18;54.79;100723.50;5062230;28;20055;-31
2022/12/25 10:24:39;;;;;;;6.80;3.08;;;;;;;15.04;54.37;100724.78;5088167;28;19928;-33
2022/12/25 10:27:14;;;;;;;4.88;2.58;;;;;;;14.89;55.06;100713.66;5086767;28;20032;-30
2022/12/25 10:29:40;;;;;;;6.53;3.55;;;;;;;15.22;53.13;100719.28;5069910;28;20032;-29
2022/12/25 10:32:09;;;;;;;3.85;2.20;;;;;;;15.20;51.15;100717.88;5088506;28;20396;-30
2022/12/25 10:34:38;;;;;;;4.43;2.40;;;;;;;15.54;51.37;100718.09;5087437;28;20449;-32
2022/12/25 10:37:04;;;;;;;5.10;2.25;;;;;;;16.03;50.19;100726.66;5070122;28;20028;-30
2022/12/25 10:39:29;;;;;;;5.18;2.72;;;;;;;16.01;50.07;100734.97;5088281;28;20034;-34
2022/12/25 10:42:30;;;;;;;4.72;2.85;;;;;;;15.99;50.96;100720.94;5088202;28;20020;-29
2022/12/25 10:44:58;;;;;;;5.25;2.92;;;;;;;16.46;49.15;100728.03;5070012;28;20123;-32
2022/12/25 10:47:25;;;;;;;;;;;;;;;16.45;47.12;100731.78;5070520;28;20028;-30
2022/12/25 10:49:51;;;;;;;4.07;1.90;;;;;;;16.13;47.04;100720.69;5088045;28;19920;-30
2022/12/25 10:52:23;;;;;;;5.35;2.50;;;;;;;15.94;48.01;100717.34;5069659;28;20118;-35
2022/12/25 10:54:48;;;;;;;3.80;1.67;;;;;;;15.94;45.45;100712.78;5069933;28;20042;-32
2022/12/25 10:57:16;;;;;;;4.80;2.00;;;;;;;16.11;45.50;100701.28;5088011;28;20031;-30
2022/12/25 10:59:44;;;;;;;5.18;2.28;;;;;;;16.58;46.35;100714.50;5079007;28;20032;-31
2022/12/25 11:02:22;;;;;;;6.57;3.35;;;;;;;16.09;46.98;100682.66;5060423;28;20032;-33
2022/12/25 11:04:50;;;;;;;4.82;1.95;;;;;;;15.98;45.62;100703.19;5069302;28;20035;-30
2022/12/25 11:07:18;;;;;;;5.80;2.17;;;;;;;16.58;45.11;100717.19;5069940;28;20028;-34
2022/12/25 11:10:08;;;;;;;3.63;1.55;;;;;;;16.54;43.52;100716.84;5088027;28;20039;-29
2022/12/25 11:12:37;;;;;;;4.50;1.63;;;;;;;16.76;44.00;100708.88;5072664;28;20036;-33
2022/12/25 11:15:35;;;;;;;3.20;1.38;;;;;;;17.39;41.65;100709.63;5065633;28;20032;-33
2022/12/25 11:18:01;;;;;;;8.93;3.55;;;;;;;17.11;43.65;100698.97;5086403;28;20055;-32
2022/12/25 11:20:26;;;;;;;5.63;2.08;;;;;;;17.38;42.21;100709.84;5074556;28;20238;-31
2022/12/25 11:22:52;;;;;;;6.68;1.90;;;;;;;17.94;42.29;100713.31;5067275;28;20539;-31
2022/12/25 11:25:24;;;;;;;3.08;1.40;;;;;;;17.22;39.33;100706.97;5066962;28;20483;-31
2022/12/25 11:27:57;;;;;;;4.43;2.15;;;;;;;17.34;40.48;100716.81;5049174;28;20040;-30
2022/12/25 11:30:22;;;;;;;6.53;2.97;;;;;;;17.39;41.39;100708.81;5067279;28;20033;-32
2022/12/25 11:32:54;;;;;;;8.70;3.33;;;;;;;17.44;40.98;100708.88;5067398;28;20425;-30
2022/12/25 11:35:24;;;;;;;2.42;1.30;;;;;;;18.08;38.61;100729.91;5073789;28;20023;-32
2022/12/25 11:37:52;;;;;;;4.20;1.67;;;;;;;18.24;37.77;100712.00;5087127;28;20510;-34
2022/12/25 11:40:26;;;;;;;2.00;1.30;;;;;;;17.64;37.86;100719.91;5080453;28;20111;-33
2022/12/25 11:43:02;;;;;;;5.28;1.85;;;;;;;17.75;37.85;100703.88;5081553;28;20056;-31
2022/12/25 11:45:36;;;;;;;3.15;1.45;;;;;;;17.20;39.55;100714.47;5068779;28;20028;-33
2022/12/25 11:48:15;;;;;;;2.78;1.70;;;;;;;17.42;40.23;100684.03;5068951;28;20028;-32
2022/12/25 11:50:53;;;;;;;3.70;1.40;;;;;;;18.45;38.03;100692.25;5068669;28;20684;-30
2022/12/25 11:53:30;;;;;;;1.85;1.30;;;;;;;18.86;36.47;100686.41;5087478;28;20499;-34
2022/12/25 11:56:01;;;;;;;3.30;1.40;;;;;;;18.37;37.21;100689.19;5085469;28;20044;-34
2022/12/25 11:58:30;;;;;;;2.50;1.33;;;;;;;18.48;36.37;100697.13;5087303;28;20495;-33
2022/12/25 12:00:57;;;;;;;2.10;1.02;;;;;;;18.22;36.89;100685.25;5086873;28;20028;-34
2022/12/25 12:03:39;;;;;;;2.13;1.08;;;;;;;18.67;36.89;100694.06;5059298;28;20031;-31
2022/12/25 12:06:13;;;;;;;3.65;1.80;;;;;;;18.43;36.85;100689.00;5073465;28;20032;-36
2022/12/25 12:08:39;;;;;;;2.17;1.23;;;;;;;18.62;37.68;100658.91;5087035;28;20039;-33
2022/12/25 12:11:15;;;;;;;3.65;1.20;;;;;;;19.13;35.40;100680.13;5087028;28;20024;-31
2022/12/25 12:14:05;;;;;;;2.63;1.10;;;;;;;18.91;35.05;100688.34;5085863;28;20028;-32
2022/12/25 12:16:30;;;;;;;2.42;1.10;;;;;;;19.20;34.35;100691.50;5086824;28;20027;-29
2022/12/25 12:18:56;;;;;;;2.90;1.17;;;;;;;19.39;34.87;100692.72;5087381;28;20467;-30
2022/12/25 12:21:24;;;;;;;2.40;0.90;;;;;;;19.03;35.30;100686.25;5086674;28;20056;-34
2022/12/25 12:24:02;;;;;;;2.97;1.50;;;;;;;19.84;34.76;100698.63;5068445;28;20419;-30
2022/12/25 12:26:35;;;;;;;2.78;1.23;;;;;;;19.70;34.17;100694.75;5087450;28;20040;-34
2022/12/25 12:29:02;;;;;;;2.13;1.20;;;;;;;19.82;34.87;100698.09;5068805;28;20024;-31
2022/12/25 12:31:42;;;;;;;1.55;0.98;;;;;;;20.51;33.91;100712.31;5068824;28;20032;-30
2022/12/25 12:34:19;;;;;;;1.55;1.00;;;;;;;21.18;32.62;100692.25;5086683;28;20048;-30
2022/12/25 12:36:45;;;;;;;2.92;1.27;;;;;;;21.27;32.45;100698.75;5085763;28;20437;-33
2022/12/25 12:39:22;;;;;;;2.78;1.10;;;;;;;21.82;31.81;100706.19;5086926;28;20032;-30
2022/12/25 12:41:48;;;;;;;2.73;1.30;;;;;;;22.23;31.19;100712.25;5086991;28;20032;-38
2022/12/25 12:44:16;;;;;;;2.40;1.20;;;;;;;22.63;29.83;100693.22;5068292;28;20460;-29
2022/12/25 12:46:51;;;;;;;3.70;1.40;;;;;;;23.46;29.01;100715.88;5068664;28;20085;-29
2022/12/25 12:49:24;;;;;;;2.08;1.20;;;;;;;23.91;28.73;100713.72;5086354;28;20032;-37
2022/12/25 12:52:24;;;;;;;1.50;1.08;;;;;;;24.56;27.43;100720.44;5088516;28;20086;-28
2022/12/25 12:55:02;;;;;;;3.40;1.50;;;;;;;24.73;27.28;100722.63;5076649;28;20043;-34
2022/12/25 12:57:32;;;;;;;2.40;1.38;;;;;;;25.54;26.43;100717.66;5071969;28;20032;-32
2022/12/25 13:00:00;;;;;;;3.00;1.17;;;;;;;26.55;25.25;100728.59;5072163;28;20040;-28
2022/12/25 13:02:25;;;;;;;3.30;1.30;;;;;;;26.20;25.44;100734.59;5090545;28;20500;-33
2022/12/25 13:05:06;;;;;;;3.03;1.33;;;;;;;24.13;27.01;100732.22;5090436;28;20024;-29
2022/12/25 13:08:13;;;;;;;1.70;1.05;;;;;;;24.93;26.82;100746.84;5071904;28;20055;-31
2022/12/25 13:10:50;;;;;;;2.00;1.40;;;;;;;24.84;26.36;100743.16;5090187;28;20039;-31
2022/12/25 13:13:27;;;;;;;2.88;1.20;;;;;;;23.65;27.79;100733.06;5089909;28;20028;-29
2022/12/25 13:15:54;;;;;;;3.17;1.33;;;;;;;24.41;27.05;100733.16;5071880;28;20069;-28
2022/12/25 13:18:20;;;;;;;2.77;1.20;;;;;;;24.50;27.05;100743.44;5088264;28;20059;-29